sensor_id;sensor_type;location;lat;lon;timestamp;temperature;humidity
65985;HTU21D;52748;51.112;5.880;2024-03-02T00:01:11;17.43;68.77
65985;HTU21D;52748;51.112;5.880;2024-03-02T00:03:38;17.43;68.74
65985;HTU21D;52748;51.112;5.880;2024-03-02T00:06:04;17.41;68.71
65985;HTU21D;52748;51.112;5.880;2024-03-02T00:08:30;17.41;68.64
65985;HTU21D;52748;51.112;5.880;2024-03-02T00:10:58;17.41;68.66
65985;HTU21D;52748;51.112;5.880;2024-03-02T00:13:24;17.40;68.70
65985;HTU21D;52748;51.112;5.880;2024-03-02T00:15:55;17.41;68.68
65985;HTU21D;52748;51.112;5.880;2024-03-02T00:20:56;17.41;68.59
65985;HTU21D;52748;51.112;5.880;2024-03-02T00:23:23;17.41;68.57
65985;HTU21D;52748;51.112;5.880;2024-03-02T00:25:53;17.40;68.57
65985;HTU21D;52748;51.112;5.880;2024-03-02T00:28:23;17.40;68.55
65985;HTU21D;52748;51.112;5.880;2024-03-02T00:31:07;17.39;68.52
65985;HTU21D;52748;51.112;5.880;2024-03-02T00:33:42;17.39;68.46
65985;HTU21D;52748;51.112;5.880;2024-03-02T00:36:09;17.38;68.45
65985;HTU21D;52748;51.112;5.880;2024-03-02T00:38:45;17.40;68.47
65985;HTU21D;52748;51.112;5.880;2024-03-02T00:41:30;17.40;68.44
65985;HTU21D;52748;51.112;5.880;2024-03-02T00:46:29;17.38;68.42
65985;HTU21D;52748;51.112;5.880;2024-03-02T00:48:57;17.38;68.36
65985;HTU21D;52748;51.112;5.880;2024-03-02T00:51:26;17.38;68.35
65985;HTU21D;52748;51.112;5.880;2024-03-02T00:53:54;17.38;68.37
65985;HTU21D;52748;51.112;5.880;2024-03-02T00:56:24;17.38;68.39
65985;HTU21D;52748;51.112;5.880;2024-03-02T00:58:50;17.38;68.38
65985;HTU21D;52748;51.112;5.880;2024-03-02T01:01:17;17.37;68.37
65985;HTU21D;52748;51.112;5.880;2024-03-02T01:03:42;17.38;68.35
65985;HTU21D;52748;51.112;5.880;2024-03-02T01:06:09;17.36;68.35
65985;HTU21D;52748;51.112;5.880;2024-03-02T01:08:35;17.37;68.35
65985;HTU21D;52748;51.112;5.880;2024-03-02T01:11:02;17.37;68.39
65985;HTU21D;52748;51.112;5.880;2024-03-02T01:13:29;17.37;68.33
65985;HTU21D;52748;51.112;5.880;2024-03-02T01:15:55;17.36;68.25
65985;HTU21D;52748;51.112;5.880;2024-03-02T01:18:20;17.36;68.27
65985;HTU21D;52748;51.112;5.880;2024-03-02T01:20:48;17.37;68.29
65985;HTU21D;52748;51.112;5.880;2024-03-02T01:23:14;17.35;68.32
65985;HTU21D;52748;51.112;5.880;2024-03-02T01:25:39;17.36;68.34
65985;HTU21D;52748;51.112;5.880;2024-03-02T01:28:05;17.37;68.35
65985;HTU21D;52748;51.112;5.880;2024-03-02T01:30:31;17.37;68.36
65985;HTU21D;52748;51.112;5.880;2024-03-02T01:32:57;17.36;68.35
65985;HTU21D;52748;51.112;5.880;2024-03-02T01:35:24;17.35;68.37
65985;HTU21D;52748;51.112;5.880;2024-03-02T01:37:50;17.35;68.37
65985;HTU21D;52748;51.112;5.880;2024-03-02T01:40:16;17.35;68.37
65985;HTU21D;52748;51.112;5.880;2024-03-02T01:42:43;17.34;68.40
65985;HTU21D;52748;51.112;5.880;2024-03-02T01:45:09;17.35;68.42
65985;HTU21D;52748;51.112;5.880;2024-03-02T01:47:35;17.35;68.45
65985;HTU21D;52748;51.112;5.880;2024-03-02T01:50:01;17.34;68.51
65985;HTU21D;52748;51.112;5.880;2024-03-02T01:52:27;17.34;68.51
65985;HTU21D;52748;51.112;5.880;2024-03-02T01:54:53;17.35;68.54
65985;HTU21D;52748;51.112;5.880;2024-03-02T01:57:19;17.34;68.54
65985;HTU21D;52748;51.112;5.880;2024-03-02T01:59:46;17.34;68.55
65985;HTU21D;52748;51.112;5.880;2024-03-02T02:02:14;17.33;68.56
65985;HTU21D;52748;51.112;5.880;2024-03-02T02:04:40;17.33;68.56
65985;HTU21D;52748;51.112;5.880;2024-03-02T02:07:06;17.34;68.55
65985;HTU21D;52748;51.112;5.880;2024-03-02T02:09:32;17.33;68.54
65985;HTU21D;52748;51.112;5.880;2024-03-02T02:11:58;17.34;68.50
65985;HTU21D;52748;51.112;5.880;2024-03-02T02:14:24;17.33;68.45
65985;HTU21D;52748;51.112;5.880;2024-03-02T02:16:50;17.34;68.44
65985;HTU21D;52748;51.112;5.880;2024-03-02T02:19:17;17.34;68.46
65985;HTU21D;52748;51.112;5.880;2024-03-02T02:21:43;17.33;68.46
65985;HTU21D;52748;51.112;5.880;2024-03-02T02:24:09;17.32;68.46
65985;HTU21D;52748;51.112;5.880;2024-03-02T02:26:35;17.33;68.43
65985;HTU21D;52748;51.112;5.880;2024-03-02T02:29:01;17.33;68.44
65985;HTU21D;52748;51.112;5.880;2024-03-02T02:31:26;17.32;68.40
65985;HTU21D;52748;51.112;5.880;2024-03-02T02:33:52;17.32;68.41
65985;HTU21D;52748;51.112;5.880;2024-03-02T02:36:18;17.32;68.42
65985;HTU21D;52748;51.112;5.880;2024-03-02T02:38:48;17.31;68.40
65985;HTU21D;52748;51.112;5.880;2024-03-02T02:41:14;17.32;68.38
65985;HTU21D;52748;51.112;5.880;2024-03-02T02:43:40;17.31;68.38
65985;HTU21D;52748;51.112;5.880;2024-03-02T02:46:06;17.31;68.40
65985;HTU21D;52748;51.112;5.880;2024-03-02T02:48:31;17.31;68.37
65985;HTU21D;52748;51.112;5.880;2024-03-02T02:50:57;17.31;68.36
65985;HTU21D;52748;51.112;5.880;2024-03-02T02:53:23;17.29;68.38
65985;HTU21D;52748;51.112;5.880;2024-03-02T02:55:48;17.30;68.39
65985;HTU21D;52748;51.112;5.880;2024-03-02T02:58:14;17.30;68.39
65985;HTU21D;52748;51.112;5.880;2024-03-02T03:00:40;17.30;68.33
65985;HTU21D;52748;51.112;5.880;2024-03-02T03:03:06;17.30;68.33
65985;HTU21D;52748;51.112;5.880;2024-03-02T03:05:31;17.29;68.32
65985;HTU21D;52748;51.112;5.880;2024-03-02T03:07:57;17.30;68.32
65985;HTU21D;52748;51.112;5.880;2024-03-02T03:10:23;17.30;68.26
65985;HTU21D;52748;51.112;5.880;2024-03-02T03:12:51;17.29;68.24
65985;HTU21D;52748;51.112;5.880;2024-03-02T03:15:17;17.29;68.20
65985;HTU21D;52748;51.112;5.880;2024-03-02T03:17:43;17.28;68.21
65985;HTU21D;52748;51.112;5.880;2024-03-02T03:20:09;17.29;68.23
65985;HTU21D;52748;51.112;5.880;2024-03-02T03:22:36;17.29;68.20
65985;HTU21D;52748;51.112;5.880;2024-03-02T03:25:02;17.28;68.21
65985;HTU21D;52748;51.112;5.880;2024-03-02T03:27:29;17.28;68.21
65985;HTU21D;52748;51.112;5.880;2024-03-02T03:29:55;17.28;68.23
65985;HTU21D;52748;51.112;5.880;2024-03-02T03:32:21;17.28;68.24
65985;HTU21D;52748;51.112;5.880;2024-03-02T03:34:47;17.28;68.23
65985;HTU21D;52748;51.112;5.880;2024-03-02T03:37:14;17.28;68.24
65985;HTU21D;52748;51.112;5.880;2024-03-02T03:39:40;17.25;68.21
65985;HTU21D;52748;51.112;5.880;2024-03-02T03:42:05;17.25;68.22
65985;HTU21D;52748;51.112;5.880;2024-03-02T03:44:32;17.25;68.25
65985;HTU21D;52748;51.112;5.880;2024-03-02T03:46:58;17.25;68.23
65985;HTU21D;52748;51.112;5.880;2024-03-02T03:49:24;17.26;68.25
65985;HTU21D;52748;51.112;5.880;2024-03-02T03:51:49;17.28;68.23
65985;HTU21D;52748;51.112;5.880;2024-03-02T03:54:15;17.26;68.24
65985;HTU21D;52748;51.112;5.880;2024-03-02T03:56:41;17.25;68.23
65985;HTU21D;52748;51.112;5.880;2024-03-02T03:59:07;17.25;68.21
65985;HTU21D;52748;51.112;5.880;2024-03-02T04:01:32;17.25;68.19
65985;HTU21D;52748;51.112;5.880;2024-03-02T04:03:59;17.24;68.20
65985;HTU21D;52748;51.112;5.880;2024-03-02T04:06:25;17.25;68.23
65985;HTU21D;52748;51.112;5.880;2024-03-02T04:08:50;17.23;68.22
65985;HTU21D;52748;51.112;5.880;2024-03-02T04:11:16;17.24;68.26
65985;HTU21D;52748;51.112;5.880;2024-03-02T04:13:42;17.24;68.26
65985;HTU21D;52748;51.112;5.880;2024-03-02T04:16:08;17.23;68.24
65985;HTU21D;52748;51.112;5.880;2024-03-02T04:18:33;17.23;68.25
65985;HTU21D;52748;51.112;5.880;2024-03-02T04:21:00;17.23;68.26
65985;HTU21D;52748;51.112;5.880;2024-03-02T04:23:26;17.23;68.26
65985;HTU21D;52748;51.112;5.880;2024-03-02T04:25:52;17.23;68.27
65985;HTU21D;52748;51.112;5.880;2024-03-02T04:28:18;17.23;68.28
65985;HTU21D;52748;51.112;5.880;2024-03-02T04:30:43;17.23;68.25
65985;HTU21D;52748;51.112;5.880;2024-03-02T04:33:09;17.23;68.23
65985;HTU21D;52748;51.112;5.880;2024-03-02T04:35:38;17.23;68.23
65985;HTU21D;52748;51.112;5.880;2024-03-02T04:38:04;17.23;68.26
65985;HTU21D;52748;51.112;5.880;2024-03-02T04:40:30;17.23;68.26
65985;HTU21D;52748;51.112;5.880;2024-03-02T04:42:56;17.22;68.23
65985;HTU21D;52748;51.112;5.880;2024-03-02T04:45:23;17.22;68.21
65985;HTU21D;52748;51.112;5.880;2024-03-02T04:47:49;17.22;68.21
65985;HTU21D;52748;51.112;5.880;2024-03-02T04:50:15;17.22;68.20
65985;HTU21D;52748;51.112;5.880;2024-03-02T04:52:40;17.21;68.21
65985;HTU21D;52748;51.112;5.880;2024-03-02T04:55:06;17.21;68.20
65985;HTU21D;52748;51.112;5.880;2024-03-02T04:57:44;17.21;68.20
65985;HTU21D;52748;51.112;5.880;2024-03-02T05:00:10;17.22;68.20
65985;HTU21D;52748;51.112;5.880;2024-03-02T05:02:36;17.20;68.18
65985;HTU21D;52748;51.112;5.880;2024-03-02T05:05:02;17.21;68.20
65985;HTU21D;52748;51.112;5.880;2024-03-02T05:07:28;17.20;68.19
65985;HTU21D;52748;51.112;5.880;2024-03-02T05:09:54;17.20;68.17
65985;HTU21D;52748;51.112;5.880;2024-03-02T05:12:20;17.20;68.17
65985;HTU21D;52748;51.112;5.880;2024-03-02T05:15:15;17.19;68.15
65985;HTU21D;52748;51.112;5.880;2024-03-02T05:17:42;17.19;68.21
65985;HTU21D;52748;51.112;5.880;2024-03-02T05:20:11;17.20;68.23
65985;HTU21D;52748;51.112;5.880;2024-03-02T05:22:37;17.19;68.17
65985;HTU21D;52748;51.112;5.880;2024-03-02T05:25:04;17.19;68.13
65985;HTU21D;52748;51.112;5.880;2024-03-02T05:27:31;17.19;68.11
65985;HTU21D;52748;51.112;5.880;2024-03-02T05:29:59;17.20;68.08
65985;HTU21D;52748;51.112;5.880;2024-03-02T05:32:25;17.18;68.10
65985;HTU21D;52748;51.112;5.880;2024-03-02T05:34:51;17.18;68.13
65985;HTU21D;52748;51.112;5.880;2024-03-02T05:37:17;17.17;68.10
65985;HTU21D;52748;51.112;5.880;2024-03-02T05:39:43;17.17;68.11
65985;HTU21D;52748;51.112;5.880;2024-03-02T05:42:12;17.18;68.11
65985;HTU21D;52748;51.112;5.880;2024-03-02T05:44:37;17.17;68.15
65985;HTU21D;52748;51.112;5.880;2024-03-02T05:47:03;17.17;68.11
65985;HTU21D;52748;51.112;5.880;2024-03-02T05:49:29;17.17;68.12
65985;HTU21D;52748;51.112;5.880;2024-03-02T05:51:55;17.16;68.11
65985;HTU21D;52748;51.112;5.880;2024-03-02T05:54:22;17.15;68.15
65985;HTU21D;52748;51.112;5.880;2024-03-02T05:56:47;17.15;68.19
65985;HTU21D;52748;51.112;5.880;2024-03-02T05:59:13;17.15;68.20
65985;HTU21D;52748;51.112;5.880;2024-03-02T06:01:40;17.14;68.17
65985;HTU21D;52748;51.112;5.880;2024-03-02T06:04:06;17.15;68.19
65985;HTU21D;52748;51.112;5.880;2024-03-02T06:06:33;17.16;68.16
65985;HTU21D;52748;51.112;5.880;2024-03-02T06:09:03;17.14;68.13
65985;HTU21D;52748;51.112;5.880;2024-03-02T06:11:40;17.14;68.16
65985;HTU21D;52748;51.112;5.880;2024-03-02T06:14:07;17.14;68.13
65985;HTU21D;52748;51.112;5.880;2024-03-02T06:16:34;17.14;68.12
65985;HTU21D;52748;51.112;5.880;2024-03-02T06:19:00;17.14;68.09
65985;HTU21D;52748;51.112;5.880;2024-03-02T06:21:27;17.15;68.10
65985;HTU21D;52748;51.112;5.880;2024-03-02T06:23:54;17.15;68.07
65985;HTU21D;52748;51.112;5.880;2024-03-02T06:26:20;17.13;68.10
65985;HTU21D;52748;51.112;5.880;2024-03-02T06:28:46;17.14;68.04
65985;HTU21D;52748;51.112;5.880;2024-03-02T06:31:12;17.13;68.06
65985;HTU21D;52748;51.112;5.880;2024-03-02T06:33:38;17.14;68.08
65985;HTU21D;52748;51.112;5.880;2024-03-02T06:36:04;17.14;68.04
65985;HTU21D;52748;51.112;5.880;2024-03-02T06:38:30;17.11;68.04
65985;HTU21D;52748;51.112;5.880;2024-03-02T06:40:57;17.13;68.07
65985;HTU21D;52748;51.112;5.880;2024-03-02T06:43:23;17.11;68.10
65985;HTU21D;52748;51.112;5.880;2024-03-02T06:45:50;17.11;68.04
65985;HTU21D;52748;51.112;5.880;2024-03-02T06:48:19;17.11;68.04
65985;HTU21D;52748;51.112;5.880;2024-03-02T06:50:46;17.13;68.02
65985;HTU21D;52748;51.112;5.880;2024-03-02T06:53:13;17.13;68.04
65985;HTU21D;52748;51.112;5.880;2024-03-02T06:55:39;17.11;68.09
65985;HTU21D;52748;51.112;5.880;2024-03-02T06:58:05;17.11;68.13
65985;HTU21D;52748;51.112;5.880;2024-03-02T07:00:31;17.13;68.19
65985;HTU21D;52748;51.112;5.880;2024-03-02T07:02:57;17.14;68.25
65985;HTU21D;52748;51.112;5.880;2024-03-02T07:05:23;17.13;68.39
65985;HTU21D;52748;51.112;5.880;2024-03-02T07:07:49;17.14;68.54
65985;HTU21D;52748;51.112;5.880;2024-03-02T07:10:15;17.14;68.65
65985;HTU21D;52748;51.112;5.880;2024-03-02T07:12:41;17.16;68.84
65985;HTU21D;52748;51.112;5.880;2024-03-02T07:15:07;17.16;68.94
65985;HTU21D;52748;51.112;5.880;2024-03-02T07:17:33;17.16;69.11
65985;HTU21D;52748;51.112;5.880;2024-03-02T07:19:59;17.19;69.16
65985;HTU21D;52748;51.112;5.880;2024-03-02T07:22:25;17.19;69.26
65985;HTU21D;52748;51.112;5.880;2024-03-02T07:24:51;17.19;69.36
65985;HTU21D;52748;51.112;5.880;2024-03-02T07:27:17;17.20;69.41
65985;HTU21D;52748;51.112;5.880;2024-03-02T07:29:43;17.20;69.44
65985;HTU21D;52748;51.112;5.880;2024-03-02T07:32:10;17.20;69.51
65985;HTU21D;52748;51.112;5.880;2024-03-02T07:34:36;17.20;64.76
65985;HTU21D;52748;51.112;5.880;2024-03-02T07:37:03;17.13;63.50
65985;HTU21D;52748;51.112;5.880;2024-03-02T07:39:29;17.04;64.61
65985;HTU21D;52748;51.112;5.880;2024-03-02T07:41:55;16.93;65.29
65985;HTU21D;52748;51.112;5.880;2024-03-02T07:44:21;16.86;65.98
65985;HTU21D;52748;51.112;5.880;2024-03-02T07:46:48;16.78;66.81
65985;HTU21D;52748;51.112;5.880;2024-03-02T07:49:18;16.72;67.15
65985;HTU21D;52748;51.112;5.880;2024-03-02T07:51:44;16.69;67.01
65985;HTU21D;52748;51.112;5.880;2024-03-02T07:54:11;16.65;67.05
65985;HTU21D;52748;51.112;5.880;2024-03-02T07:56:37;16.61;67.11
65985;HTU21D;52748;51.112;5.880;2024-03-02T07:59:03;16.58;67.23
65985;HTU21D;52748;51.112;5.880;2024-03-02T08:01:31;16.55;67.23
65985;HTU21D;52748;51.112;5.880;2024-03-02T08:03:57;16.51;67.14
65985;HTU21D;52748;51.112;5.880;2024-03-02T08:06:27;16.51;67.27
65985;HTU21D;52748;51.112;5.880;2024-03-02T08:08:58;16.48;65.94
65985;HTU21D;52748;51.112;5.880;2024-03-02T08:11:24;16.49;66.84
65985;HTU21D;52748;51.112;5.880;2024-03-02T08:13:50;16.56;67.05
65985;HTU21D;52748;51.112;5.880;2024-03-02T08:16:16;16.62;67.10
65985;HTU21D;52748;51.112;5.880;2024-03-02T08:18:46;16.69;67.20
65985;HTU21D;52748;51.112;5.880;2024-03-02T08:21:13;16.77;67.30
65985;HTU21D;52748;51.112;5.880;2024-03-02T08:23:41;16.82;67.42
65985;HTU21D;52748;51.112;5.880;2024-03-02T08:26:10;16.88;67.33
65985;HTU21D;52748;51.112;5.880;2024-03-02T08:28:36;16.94;67.13
65985;HTU21D;52748;51.112;5.880;2024-03-02T08:31:03;16.98;67.04
65985;HTU21D;52748;51.112;5.880;2024-03-02T08:33:29;17.00;66.81
65985;HTU21D;52748;51.112;5.880;2024-03-02T08:35:56;17.02;66.63
65985;HTU21D;52748;51.112;5.880;2024-03-02T08:38:22;17.04;64.15
65985;HTU21D;52748;51.112;5.880;2024-03-02T08:40:49;17.04;60.09
65985;HTU21D;52748;51.112;5.880;2024-03-02T08:43:15;16.91;57.11
65985;HTU21D;52748;51.112;5.880;2024-03-02T08:45:44;16.72;57.95
65985;HTU21D;52748;51.112;5.880;2024-03-02T08:48:10;16.55;57.75
65985;HTU21D;52748;51.112;5.880;2024-03-02T08:50:36;16.40;58.65
65985;HTU21D;52748;51.112;5.880;2024-03-02T08:53:03;16.28;58.48
65985;HTU21D;52748;51.112;5.880;2024-03-02T08:55:30;16.18;58.35
65985;HTU21D;52748;51.112;5.880;2024-03-02T08:57:56;16.10;59.03
65985;HTU21D;52748;51.112;5.880;2024-03-02T09:00:23;16.02;58.54
65985;HTU21D;52748;51.112;5.880;2024-03-02T09:02:49;15.98;58.37
65985;HTU21D;52748;51.112;5.880;2024-03-02T09:05:15;15.91;58.80
65985;HTU21D;52748;51.112;5.880;2024-03-02T09:07:41;15.90;58.64
65985;HTU21D;52748;51.112;5.880;2024-03-02T09:10:08;15.88;58.83
65985;HTU21D;52748;51.112;5.880;2024-03-02T09:12:35;15.88;57.94
65985;HTU21D;52748;51.112;5.880;2024-03-02T09:15:01;15.87;57.32
65985;HTU21D;52748;51.112;5.880;2024-03-02T09:17:29;15.83;57.64
65985;HTU21D;52748;51.112;5.880;2024-03-02T09:19:55;15.83;57.93
65985;HTU21D;52748;51.112;5.880;2024-03-02T09:22:21;15.85;58.24
65985;HTU21D;52748;51.112;5.880;2024-03-02T09:24:47;15.87;57.80
65985;HTU21D;52748;51.112;5.880;2024-03-02T09:27:13;15.92;57.63
65985;HTU21D;52748;51.112;5.880;2024-03-02T09:29:38;15.96;57.57
65985;HTU21D;52748;51.112;5.880;2024-03-02T09:32:11;16.01;56.72
65985;HTU21D;52748;51.112;5.880;2024-03-02T09:34:37;16.01;56.41
65985;HTU21D;52748;51.112;5.880;2024-03-02T09:37:03;16.04;57.39
65985;HTU21D;52748;51.112;5.880;2024-03-02T09:39:30;16.10;57.55
65985;HTU21D;52748;51.112;5.880;2024-03-02T09:41:57;16.17;57.64
65985;HTU21D;52748;51.112;5.880;2024-03-02T09:44:23;16.21;56.62
65985;HTU21D;52748;51.112;5.880;2024-03-02T09:46:51;16.24;56.82
65985;HTU21D;52748;51.112;5.880;2024-03-02T09:49:17;16.31;58.87
65985;HTU21D;52748;51.112;5.880;2024-03-02T09:51:49;16.39;59.80
65985;HTU21D;52748;51.112;5.880;2024-03-02T09:54:16;16.47;60.35
65985;HTU21D;52748;51.112;5.880;2024-03-02T09:56:42;16.54;60.70
65985;HTU21D;52748;51.112;5.880;2024-03-02T09:59:08;16.62;60.99
65985;HTU21D;52748;51.112;5.880;2024-03-02T10:01:35;16.67;61.22
65985;HTU21D;52748;51.112;5.880;2024-03-02T10:04:01;16.74;61.41
65985;HTU21D;52748;51.112;5.880;2024-03-02T10:06:29;16.77;59.03
65985;HTU21D;52748;51.112;5.880;2024-03-02T10:08:55;16.79;60.92
65985;HTU21D;52748;51.112;5.880;2024-03-02T10:11:32;16.82;61.53
65985;HTU21D;52748;51.112;5.880;2024-03-02T10:14:19;16.87;61.87
65985;HTU21D;52748;51.112;5.880;2024-03-02T10:16:45;16.90;62.11
65985;HTU21D;52748;51.112;5.880;2024-03-02T10:19:19;16.93;62.33
65985;HTU21D;52748;51.112;5.880;2024-03-02T10:21:51;16.95;62.54
65985;HTU21D;52748;51.112;5.880;2024-03-02T10:24:27;16.98;62.76
65985;HTU21D;52748;51.112;5.880;2024-03-02T10:26:55;17.00;62.93
65985;HTU21D;52748;51.112;5.880;2024-03-02T10:29:22;17.02;63.15
65985;HTU21D;52748;51.112;5.880;2024-03-02T10:31:48;17.01;63.34
65985;HTU21D;52748;51.112;5.880;2024-03-02T10:34:14;17.04;63.53
65985;HTU21D;52748;51.112;5.880;2024-03-02T10:36:42;17.05;63.75
65985;HTU21D;52748;51.112;5.880;2024-03-02T10:39:09;17.07;64.05
65985;HTU21D;52748;51.112;5.880;2024-03-02T10:41:37;17.07;58.81
65985;HTU21D;52748;51.112;5.880;2024-03-02T10:44:04;17.03;57.75
65985;HTU21D;52748;51.112;5.880;2024-03-02T10:46:34;16.98;57.87
65985;HTU21D;52748;51.112;5.880;2024-03-02T10:49:01;16.98;60.24
65985;HTU21D;52748;51.112;5.880;2024-03-02T10:51:29;16.98;61.62
65985;HTU21D;52748;51.112;5.880;2024-03-02T10:53:58;16.99;62.16
65985;HTU21D;52748;51.112;5.880;2024-03-02T10:56:40;17.02;62.50
65985;HTU21D;52748;51.112;5.880;2024-03-02T11:01:47;17.04;60.12
65985;HTU21D;52748;51.112;5.880;2024-03-02T11:04:16;17.04;59.16
65985;HTU21D;52748;51.112;5.880;2024-03-02T11:06:48;17.02;58.48
65985;HTU21D;52748;51.112;5.880;2024-03-02T11:09:18;17.02;57.76
65985;HTU21D;52748;51.112;5.880;2024-03-02T11:11:54;17.02;57.34
65985;HTU21D;52748;51.112;5.880;2024-03-02T11:14:24;17.01;57.24
65985;HTU21D;52748;51.112;5.880;2024-03-02T11:16:52;17.00;56.15
65985;HTU21D;52748;51.112;5.880;2024-03-02T11:19:21;16.98;58.88
65985;HTU21D;52748;51.112;5.880;2024-03-02T11:21:48;16.98;56.12
65985;HTU21D;52748;51.112;5.880;2024-03-02T11:26:53;16.91;55.11
65985;HTU21D;52748;51.112;5.880;2024-03-02T11:34:49;16.91;55.28
65985;HTU21D;52748;51.112;5.880;2024-03-02T11:37:17;16.91;54.62
65985;HTU21D;52748;51.112;5.880;2024-03-02T11:39:48;16.91;54.17
65985;HTU21D;52748;51.112;5.880;2024-03-02T11:42:15;16.89;53.64
65985;HTU21D;52748;51.112;5.880;2024-03-02T11:44:44;16.88;53.48
65985;HTU21D;52748;51.112;5.880;2024-03-02T11:47:12;16.87;53.10
65985;HTU21D;52748;51.112;5.880;2024-03-02T11:49:43;16.86;53.41
65985;HTU21D;52748;51.112;5.880;2024-03-02T11:52:12;16.84;52.89
65985;HTU21D;52748;51.112;5.880;2024-03-02T11:54:41;16.85;52.99
65985;HTU21D;52748;51.112;5.880;2024-03-02T11:57:16;16.82;52.75
65985;HTU21D;52748;51.112;5.880;2024-03-02T11:59:43;16.82;52.36
65985;HTU21D;52748;51.112;5.880;2024-03-02T12:02:18;16.87;53.41
65985;HTU21D;52748;51.112;5.880;2024-03-02T12:04:46;16.90;52.43
65985;HTU21D;52748;51.112;5.880;2024-03-02T12:07:19;16.90;51.52
65985;HTU21D;52748;51.112;5.880;2024-03-02T12:09:46;16.89;50.94
65985;HTU21D;52748;51.112;5.880;2024-03-02T12:12:12;16.86;51.72
65985;HTU21D;52748;51.112;5.880;2024-03-02T12:14:51;16.85;51.81
65985;HTU21D;52748;51.112;5.880;2024-03-02T12:17:18;16.86;53.00
65985;HTU21D;52748;51.112;5.880;2024-03-02T12:19:44;16.89;53.74
65985;HTU21D;52748;51.112;5.880;2024-03-02T12:22:11;16.94;53.59
65985;HTU21D;52748;51.112;5.880;2024-03-02T12:24:37;16.96;53.28
65985;HTU21D;52748;51.112;5.880;2024-03-02T12:27:05;17.01;54.80
65985;HTU21D;52748;51.112;5.880;2024-03-02T12:29:32;17.04;55.46
65985;HTU21D;52748;51.112;5.880;2024-03-02T12:32:00;17.07;55.94
65985;HTU21D;52748;51.112;5.880;2024-03-02T12:34:28;17.10;56.38
65985;HTU21D;52748;51.112;5.880;2024-03-02T12:36:57;17.13;56.83
65985;HTU21D;52748;51.112;5.880;2024-03-02T12:39:22;17.16;57.22
65985;HTU21D;52748;51.112;5.880;2024-03-02T12:41:51;17.17;57.63
65985;HTU21D;52748;51.112;5.880;2024-03-02T12:44:20;17.20;58.01
65985;HTU21D;52748;51.112;5.880;2024-03-02T12:46:48;17.21;58.41
65985;HTU21D;52748;51.112;5.880;2024-03-02T12:49:16;17.23;58.86
65985;HTU21D;52748;51.112;5.880;2024-03-02T12:51:42;17.25;59.50
65985;HTU21D;52748;51.112;5.880;2024-03-02T12:54:10;17.28;60.09
65985;HTU21D;52748;51.112;5.880;2024-03-02T12:56:37;17.30;60.52
65985;HTU21D;52748;51.112;5.880;2024-03-02T12:59:04;17.31;60.89
65985;HTU21D;52748;51.112;5.880;2024-03-02T13:01:31;17.33;61.14
65985;HTU21D;52748;51.112;5.880;2024-03-02T13:03:58;17.34;61.67
65985;HTU21D;52748;51.112;5.880;2024-03-02T13:06:26;17.40;61.50
65985;HTU21D;52748;51.112;5.880;2024-03-02T13:08:55;17.44;60.02
65985;HTU21D;52748;51.112;5.880;2024-03-02T13:11:22;17.46;53.07
65985;HTU21D;52748;51.112;5.880;2024-03-02T13:13:49;17.49;54.11
65985;HTU21D;52748;51.112;5.880;2024-03-02T13:16:15;17.47;53.14
65985;HTU21D;52748;51.112;5.880;2024-03-02T13:18:42;17.40;52.82
65985;HTU21D;52748;51.112;5.880;2024-03-02T13:21:08;17.36;52.82
65985;HTU21D;52748;51.112;5.880;2024-03-02T13:23:34;17.31;52.65
65985;HTU21D;52748;51.112;5.880;2024-03-02T13:26:01;17.26;53.49
65985;HTU21D;52748;51.112;5.880;2024-03-02T13:28:27;17.25;54.35
65985;HTU21D;52748;51.112;5.880;2024-03-02T13:30:53;17.25;54.66
65985;HTU21D;52748;51.112;5.880;2024-03-02T13:33:19;17.21;54.13
65985;HTU21D;52748;51.112;5.880;2024-03-02T13:35:51;17.11;55.32
65985;HTU21D;52748;51.112;5.880;2024-03-02T13:38:18;17.01;56.20
65985;HTU21D;52748;51.112;5.880;2024-03-02T13:40:45;16.92;56.52
65985;HTU21D;52748;51.112;5.880;2024-03-02T13:43:11;16.88;57.04
65985;HTU21D;52748;51.112;5.880;2024-03-02T13:45:41;16.82;57.62
65985;HTU21D;52748;51.112;5.880;2024-03-02T13:48:07;16.78;58.29
65985;HTU21D;52748;51.112;5.880;2024-03-02T13:50:33;16.76;58.61
65985;HTU21D;52748;51.112;5.880;2024-03-02T13:52:58;16.74;59.42
65985;HTU21D;52748;51.112;5.880;2024-03-02T13:55:24;16.73;59.83
65985;HTU21D;52748;51.112;5.880;2024-03-02T13:57:50;16.73;60.21
65985;HTU21D;52748;51.112;5.880;2024-03-02T14:00:17;16.71;60.54
65985;HTU21D;52748;51.112;5.880;2024-03-02T14:02:43;16.72;60.89
65985;HTU21D;52748;51.112;5.880;2024-03-02T14:05:11;16.71;61.21
65985;HTU21D;52748;51.112;5.880;2024-03-02T14:07:39;16.72;61.51
65985;HTU21D;52748;51.112;5.880;2024-03-02T14:10:06;16.72;58.60
65985;HTU21D;52748;51.112;5.880;2024-03-02T14:12:32;16.72;55.49
65985;HTU21D;52748;51.112;5.880;2024-03-02T14:14:57;16.74;54.17
65985;HTU21D;52748;51.112;5.880;2024-03-02T14:17:28;16.73;52.69
65985;HTU21D;52748;51.112;5.880;2024-03-02T14:19:54;16.73;51.85
65985;HTU21D;52748;51.112;5.880;2024-03-02T14:22:20;16.73;51.89
65985;HTU21D;52748;51.112;5.880;2024-03-02T14:24:46;16.72;51.46
65985;HTU21D;52748;51.112;5.880;2024-03-02T14:27:13;16.72;51.54
65985;HTU21D;52748;51.112;5.880;2024-03-02T14:29:40;16.72;51.51
65985;HTU21D;52748;51.112;5.880;2024-03-02T14:32:06;16.71;51.21
65985;HTU21D;52748;51.112;5.880;2024-03-02T14:34:32;16.71;51.33
65985;HTU21D;52748;51.112;5.880;2024-03-02T14:36:59;16.70;52.28
65985;HTU21D;52748;51.112;5.880;2024-03-02T14:39:26;16.69;53.19
65985;HTU21D;52748;51.112;5.880;2024-03-02T14:41:52;16.67;52.47
65985;HTU21D;52748;51.112;5.880;2024-03-02T14:44:18;16.67;52.83
65985;HTU21D;52748;51.112;5.880;2024-03-02T14:46:48;16.66;52.93
65985;HTU21D;52748;51.112;5.880;2024-03-02T14:49:15;16.67;51.98
65985;HTU21D;52748;51.112;5.880;2024-03-02T14:51:41;16.65;52.13
65985;HTU21D;52748;51.112;5.880;2024-03-02T14:54:06;16.64;52.36
65985;HTU21D;52748;51.112;5.880;2024-03-02T14:56:32;16.64;52.88
65985;HTU21D;52748;51.112;5.880;2024-03-02T14:58:58;16.62;52.64
65985;HTU21D;52748;51.112;5.880;2024-03-02T15:01:24;16.63;52.60
65985;HTU21D;52748;51.112;5.880;2024-03-02T15:03:51;16.63;52.42
65985;HTU21D;52748;51.112;5.880;2024-03-02T15:06:17;16.63;52.55
65985;HTU21D;52748;51.112;5.880;2024-03-02T15:08:43;16.64;52.63
65985;HTU21D;52748;51.112;5.880;2024-03-02T15:11:12;16.62;52.78
65985;HTU21D;52748;51.112;5.880;2024-03-02T15:13:38;16.61;52.88
65985;HTU21D;52748;51.112;5.880;2024-03-02T15:16:04;16.61;53.66
65985;HTU21D;52748;51.112;5.880;2024-03-02T15:18:30;16.61;54.94
65985;HTU21D;52748;51.112;5.880;2024-03-02T15:20:57;16.61;53.91
65985;HTU21D;52748;51.112;5.880;2024-03-02T15:23:23;16.62;55.40
65985;HTU21D;52748;51.112;5.880;2024-03-02T15:25:49;16.64;59.22
65985;HTU21D;52748;51.112;5.880;2024-03-02T15:28:15;16.63;61.57
65985;HTU21D;52748;51.112;5.880;2024-03-02T15:30:41;16.62;62.31